• Join FlightAware (Why Join?)
  • Login
  • US Flag 
05:49PM EDT


 

Airport Tracker/Info


-or-


 

Live Flight TrackerFlight Track Log ✈ ASH3770 ✈ 14-May-2013 ✈ KORD - KBDL

Flight Track Log - Related Links

Times and Time Zones

All times are in EDT time to prevent confusion due to time zone crossing. See the ASH3770 flight status page for this flight to view local times or setup timezone preferences in your user account.

Time Position Orientation Groundspeed Altitude Reporting Facility
EDT Latitude Longitude Course Direction KTS MPH feet Rate Location/Type
10:20PM 41.9333 -87.8833 77° East 190 219 2,800  Level Chicago TRACON
10:21PM 41.8833 -87.8167 135° Southeast 235 270 4,900 1,500 Climbing Chicago TRACON
10:22PM 41.8500 -87.7333 118° Southeast 294 338 5,800 1,860 Climbing Chicago TRACON
10:24PM 41.9056 -87.5464 68° East 323 372 10,200 2,520 Climbing Chicago Center
10:25PM 41.9506 -87.4400 60° Northeast 329 379 13,000 2,340 Climbing Chicago Center
10:26PM 42.1040 -87.0092 77° East  Level FlightAware Approximate
10:26PM 42.0006 -87.3297 59° Northeast 343 395 15,000  Level Chicago Center
10:27PM 42.0611 -87.1847 61° Northeast 370 426 18,400 2,580 Climbing Chicago Center
10:28PM 42.1100 -87.0614 62° Northeast 376 433 20,300 1,800 Climbing Chicago Center
10:29PM 42.1189 -86.9128 85° East 396 456 22,100 1,680 Climbing Chicago Center
10:30PM 42.1233 -86.7567 88° East 413 475 23,800 1,440 Climbing Chicago Center
10:31PM 42.1278 -86.5925 88° East 432 497 25,100 1,380 Climbing Chicago Center
10:32PM 42.1333 -86.4261 87° East 443 510 26,700 1,500 Climbing Chicago Center
10:33PM 42.1383 -86.2553 88° East 452 520 28,200 1,260 Climbing Chicago Center
10:34PM 42.1431 -86.0817 88° East 461 531 29,300 1,080 Climbing Chicago Center
10:35PM 42.1408 -85.8819 91° East 474 545 30,500 1,020 Climbing Chicago Center
10:37PM 42.1400 -85.7006 90° East 485 558 31,500 960 Climbing Chicago Center
10:38PM 42.1367 -85.5181 91° East 491 565 32,500 720 Climbing Chicago Center
10:39PM 42.1353 -85.3331 91° East 497 572 33,000 780 Climbing Chicago Center
10:39PM 42.1383 -85.1958 88° East 501 577 33,900 1,980 Climbing Cleveland Center
10:40PM 42.1350 -85.0161 91° East 496 571 36,500 1,500 Climbing Cleveland Center
10:41PM 42.1333 -84.8397 91° East 484 557 37,000 240 Climbing Cleveland Center
10:42PM 42.1486 -84.6444 84° East 477 549 37,000  Level Cleveland Center
10:43PM 42.1564 -84.4797 86° East 477 549 37,000  Level Cleveland Center
10:44PM 42.1731 -84.2900 83° East 494 568 37,000  Level Cleveland Center
10:45PM 42.1878 -84.0947 84° East 507 583 37,000  Level Cleveland Center
10:46PM 42.2039 -83.8994 84° East 520 598 37,000  Level Cleveland Center
10:47PM 42.2197 -83.7039 84° East 520 598 37,000  Level Cleveland Center
10:48PM 42.2356 -83.5000 84° East 532 612 37,000  Level Cleveland Center
10:49PM 42.2508 -83.2986 84° East 538 619 37,000  Level Cleveland Center
10:50PM 42.2664 -83.0803 84° East 544 626 37,000  Level Cleveland Center
10:51PM 42.2808 -82.8817 84° East 532 612 37,000  Level Cleveland Center
10:52PM 42.2950 -82.6883 84° East 526 605 37,000  Level Cleveland Center
10:53PM 42.3069 -82.4894 85° East 526 605 37,000  Level Cleveland Center
10:54PM 42.3203 -82.2933 85° East 526 605 37,000  Level Cleveland Center
10:55PM 42.3336 -82.0942 85° East 526 605 37,000  Level Cleveland Center
10:56PM 42.3486 -81.8953 84° East 531 611 37,000  Level Cleveland Center
10:57PM 42.3611 -81.6958 85° East 531 611 37,000  Level Cleveland Center
10:58PM 42.3689 -81.5161 87° East 531 611 37,000  Level Cleveland Center
10:59PM 42.3808 -81.3194 85° East 531 611 37,000  Level Cleveland Center
11:00PM 42.3922 -81.1258 85° East 531 611 37,000  Level Cleveland Center
11:01PM 42.4033 -80.9261 86° East 531 611 37,000  Level Cleveland Center
11:02PM 42.4142 -80.7267 86° East 538 619 37,000  Level Cleveland Center
11:03PM 42.4228 -80.5242 87° East 533 613 37,000  Level Cleveland Center
11:04PM 42.4328 -80.3075 86° East 533 613 37,000  Level Cleveland Center
11:05PM 42.4425 -80.1078 86° East 538 619 37,000  Level Cleveland Center
11:06PM 42.4522 -79.9303 86° East 528 608 37,000  Level Cleveland Center
11:07PM 42.4614 -79.7333 86° East 528 608 37,000  Level Cleveland Center
11:08PM 42.4722 -79.5333 86° East 528 608 37,000  Level Cleveland Center
11:09PM 42.4764 -79.3361 88° East 528 608 37,000  Level Cleveland Center
11:10PM 42.4844 -79.1333 87° East 528 608 37,000  Level Cleveland Center
11:11PM 42.4900 -78.9331 88° East 533 613 37,000  Level Cleveland Center
11:12PM 42.4997 -78.7331 86° East 533 613 37,000  Level Cleveland Center
11:13PM 42.5044 -78.5328 88° East 533 613 37,000  Level Cleveland Center
11:14PM 42.5114 -78.3383 87° East 533 613 37,000  Level Cleveland Center
11:15PM 42.5175 -78.1325 88° East 533 613 37,000  Level Cleveland Center
11:16PM 42.5194 -77.9350 89° East 533 613 37,000  Level Cleveland Center
11:17PM 42.5250 -77.7347 88° East 533 613 37,000  Level Cleveland Center
11:18PM 42.5347 -77.5369 86° East 533 613 37,000 -300 Level Cleveland Center
11:20PM 42.5400 -77.1608 89° East 532 612 36,300 -480 Descending Boston Center
11:21PM 42.5417 -76.9608 89° East 532 612 35,700 -540 Descending Boston Center
11:22PM 42.5453 -76.7608 89° East 532 612 35,300 -360 Descending Boston Center
11:23PM 42.5506 -76.5639 88° East 532 612 35,000 -180 Descending Boston Center
11:24PM 42.5511 -76.3722 90° East 522 601 35,000  Level Boston Center
11:25PM 42.5550 -76.1978 88° East 514 592 35,000  Level Boston Center
11:26PM 42.5572 -76.0033 89° East 514 592 35,000  Level Boston Center
11:27PM 42.5467 -75.8025 94° East 519 597 35,000 -240 Level Boston Center
11:28PM 42.5117 -75.5611 101° East 533 613 34,600 -420 Descending Boston Center
11:29PM 42.4817 -75.3597 101° East 543 625 34,100 -900 Descending Boston Center
11:30PM 42.4678 -75.1647 95° East 543 625 32,800 -2,700 Descending Boston Center
11:31PM 42.4700 -74.9733 89° East 521 600 28,800 -3,840 Descending Boston Center
11:32PM 42.4761 -74.7906 87° East 497 572 25,200 -3,540 Descending Boston Center
11:33PM 42.4775 -74.6189 89° East 473 544 21,700 -3,540 Descending Boston Center
11:34PM 42.4597 -74.4467 98° East 457 526 18,200 -1,920 Descending Boston Center
11:35PM 42.4128 -74.2708 110° East 451 519 18,000 -300 Descending Boston Center
11:36PM 42.3692 -74.1261 112° Southeast 456 525 17,700 -420 Descending Boston Center
11:37PM 42.3175 -73.9478 111° Southeast 461 531 17,200 -540 Descending Boston Center
11:38PM 42.2756 -73.8067 112° Southeast 453 521 16,700 -540 Descending Boston Center
11:39PM 42.2414 -73.6825 110° East 451 519 16,300 -540 Descending Boston Center
11:39PM 42.2314 -73.6514 113° Southeast 453 521 16,200 -540 Descending Boston Center
11:40PM 42.1808 -73.4936 113° Southeast 443 510 15,700 -1,320 Descending Boston Center
11:41PM 42.1467 -73.3417 107° East 419 482 13,700 -2,880 Descending Boston Center
11:42PM 42.1333 -73.1958 97° East 394 453 10,000 -2,160 Descending Boston Center
11:43PM 42.1236 -73.0783 96° East 314 361 9,400 -1,440 Descending Boston Center
11:44PM 42.1200 -72.9606 92° East 297 342 7,000 -1,920 Descending Boston Center
11:45PM 42.1119 -72.8739 97° East 291 335 5,500 -1,020 Descending Boston Center
11:46PM 42.1039 -72.7592 95° East 266 306 5,000 -420 Descending Boston Center
11:47PM 42.0981 -72.6808 96° East 215 247 4,700 -960 Descending Boston Center
11:48PM 42.0878 -72.6022 100° East 184 212 3,000 -900 Descending Boston Center
11:49PM 42.0836 -72.5492 96° East 179 206 3,000 -300 Level Boston Center
11:50PM 42.0461 -72.5575 189° South 118 136 2,500 -480 Descending Boston Center
11:51PM 42.0106 -72.5939 217° Southwest 120 138 2,100 -600 Descending Boston Center
11:52PM 41.9814 -72.6328 225° Southwest 147 169 1,300 -900 Descending Boston Center
11:53PM 41.9542 -72.6689 225° Southwest 147 169 300 -1,020 Descending Boston Center